sensor_id;sensor_type;location;lat;lon;timestamp;pressure;altitude;pressure_sealevel;temperature;humidity
57192;BME280;43052;52.588;13.396;2023-03-14T00:02:22;98812.69;;;11.34;70.94
57192;BME280;43052;52.588;13.396;2023-03-14T00:04:48;98811.97;;;11.30;71.19
57192;BME280;43052;52.588;13.396;2023-03-14T00:07:14;98808.50;;;11.29;71.27
57192;BME280;43052;52.588;13.396;2023-03-14T00:09:39;98805.09;;;11.27;71.23
57192;BME280;43052;52.588;13.396;2023-03-14T00:12:05;98791.28;;;11.24;71.33
57192;BME280;43052;52.588;13.396;2023-03-14T00:14:31;98789.66;;;11.21;71.41
57192;BME280;43052;52.588;13.396;2023-03-14T00:16:57;98797.53;;;11.20;71.25
57192;BME280;43052;52.588;13.396;2023-03-14T00:19:22;98786.31;;;11.18;71.37
57192;BME280;43052;52.588;13.396;2023-03-14T00:21:47;98788.03;;;11.17;71.37
57192;BME280;43052;52.588;13.396;2023-03-14T00:24:13;98779.47;;;11.13;71.27
57192;BME280;43052;52.588;13.396;2023-03-14T00:26:38;98767.31;;;11.12;71.33
57192;BME280;43052;52.588;13.396;2023-03-14T00:29:03;98762.13;;;11.11;71.50
57192;BME280;43052;52.588;13.396;2023-03-14T00:31:29;98758.91;;;11.04;71.45
57192;BME280;43052;52.588;13.396;2023-03-14T00:33:54;98758.19;;;11.01;71.72
57192;BME280;43052;52.588;13.396;2023-03-14T00:36:19;98743.53;;;10.96;71.60
57192;BME280;43052;52.588;13.396;2023-03-14T00:38:47;98741.03;;;10.93;71.54
57192;BME280;43052;52.588;13.396;2023-03-14T00:41:19;98727.94;;;10.93;71.82
57192;BME280;43052;52.588;13.396;2023-03-14T00:43:45;98730.50;;;10.95;71.80
57192;BME280;43052;52.588;13.396;2023-03-14T00:46:11;98733.19;;;10.93;71.95
57192;BME280;43052;52.588;13.396;2023-03-14T00:48:37;98747.97;;;10.94;72.04
57192;BME280;43052;52.588;13.396;2023-03-14T00:51:05;98735.88;;;10.92;72.11
57192;BME280;43052;52.588;13.396;2023-03-14T00:53:31;98731.66;;;10.88;72.39
57192;BME280;43052;52.588;13.396;2023-03-14T00:55:57;98714.50;;;10.80;72.21
57192;BME280;43052;52.588;13.396;2023-03-14T00:58:26;98720.53;;;10.82;72.12
57192;BME280;43052;52.588;13.396;2023-03-14T01:00:52;98710.13;;;10.81;72.41
57192;BME280;43052;52.588;13.396;2023-03-14T01:03:17;98702.28;;;10.81;72.65
57192;BME280;43052;52.588;13.396;2023-03-14T01:05:42;98706.78;;;10.77;72.48
57192;BME280;43052;52.588;13.396;2023-03-14T01:08:07;98709.28;;;10.80;72.50
57192;BME280;43052;52.588;13.396;2023-03-14T01:10:34;98698.94;;;10.77;72.65
57192;BME280;43052;52.588;13.396;2023-03-14T01:12:59;98689.56;;;10.72;72.62
57192;BME280;43052;52.588;13.396;2023-03-14T01:15:24;98694.88;;;10.70;72.86
57192;BME280;43052;52.588;13.396;2023-03-14T01:17:50;98714.94;;;10.70;72.83
57192;BME280;43052;52.588;13.396;2023-03-14T01:20:16;98716.06;;;10.62;72.92
57192;BME280;43052;52.588;13.396;2023-03-14T01:22:42;98725.75;;;10.60;73.45
57192;BME280;43052;52.588;13.396;2023-03-14T01:25:09;98745.75;;;10.61;73.17
57192;BME280;43052;52.588;13.396;2023-03-14T01:27:35;98758.91;;;10.58;73.32
57192;BME280;43052;52.588;13.396;2023-03-14T01:30:00;98770.28;;;10.57;73.49
57192;BME280;43052;52.588;13.396;2023-03-14T01:32:25;98763.25;;;10.59;73.62
57192;BME280;43052;52.588;13.396;2023-03-14T01:34:51;98764.16;;;10.58;73.85
57192;BME280;43052;52.588;13.396;2023-03-14T01:37:17;98768.28;;;10.64;73.81
57192;BME280;43052;52.588;13.396;2023-03-14T01:39:42;98776.00;;;10.67;73.81
57192;BME280;43052;52.588;13.396;2023-03-14T01:42:07;98768.06;;;10.70;73.78
57192;BME280;43052;52.588;13.396;2023-03-14T01:44:50;98760.91;;;10.75;73.57
57192;BME280;43052;52.588;13.396;2023-03-14T01:47:15;98780.78;;;10.79;73.63
57192;BME280;43052;52.588;13.396;2023-03-14T01:49:41;98781.63;;;10.80;73.52
57192;BME280;43052;52.588;13.396;2023-03-14T01:52:29;98792.84;;;10.84;73.33
57192;BME280;43052;52.588;13.396;2023-03-14T01:55:05;98802.19;;;10.89;73.37
57192;BME280;43052;52.588;13.396;2023-03-14T01:57:35;98786.31;;;10.94;73.17
57192;BME280;43052;52.588;13.396;2023-03-14T02:00:21;98768.03;;;10.94;73.14
57192;BME280;43052;52.588;13.396;2023-03-14T02:02:50;98769.78;;;10.93;73.20
57192;BME280;43052;52.588;13.396;2023-03-14T02:05:19;98765.66;;;10.88;73.24
57192;BME280;43052;52.588;13.396;2023-03-14T02:07:52;98749.41;;;10.79;73.26
57192;BME280;43052;52.588;13.396;2023-03-14T02:10:21;98760.78;;;10.78;73.31
57192;BME280;43052;52.588;13.396;2023-03-14T02:12:48;98757.25;;;10.79;73.38
57192;BME280;43052;52.588;13.396;2023-03-14T02:15:14;98753.97;;;10.74;73.27
57192;BME280;43052;52.588;13.396;2023-03-14T02:17:40;98751.41;;;10.73;73.35
57192;BME280;43052;52.588;13.396;2023-03-14T02:20:24;98749.81;;;10.69;73.57
57192;BME280;43052;52.588;13.396;2023-03-14T02:22:52;98748.00;;;10.71;73.48
57192;BME280;43052;52.588;13.396;2023-03-14T02:25:31;98749.69;;;10.72;73.46
57192;BME280;43052;52.588;13.396;2023-03-14T02:28:01;98739.75;;;10.81;73.54
57192;BME280;43052;52.588;13.396;2023-03-14T02:30:29;98734.34;;;10.86;73.29
57192;BME280;43052;52.588;13.396;2023-03-14T02:32:59;98729.84;;;10.90;73.19
57192;BME280;43052;52.588;13.396;2023-03-14T02:35:28;98735.91;;;10.90;73.35
57192;BME280;43052;52.588;13.396;2023-03-14T02:38:07;98734.81;;;10.96;73.17
57192;BME280;43052;52.588;13.396;2023-03-14T02:40:35;98730.22;;;11.03;72.91
57192;BME280;43052;52.588;13.396;2023-03-14T02:43:00;98728.22;;;11.09;72.70
57192;BME280;43052;52.588;13.396;2023-03-14T02:45:35;98720.09;;;11.16;72.38
57192;BME280;43052;52.588;13.396;2023-03-14T02:48:06;98723.50;;;11.18;72.26
57192;BME280;43052;52.588;13.396;2023-03-14T02:50:33;98706.94;;;11.17;72.32
57192;BME280;43052;52.588;13.396;2023-03-14T02:52:59;98701.59;;;11.20;72.35
57192;BME280;43052;52.588;13.396;2023-03-14T02:55:24;98709.56;;;11.17;72.12
57192;BME280;43052;52.588;13.396;2023-03-14T02:57:51;98694.78;;;11.16;72.23
57192;BME280;43052;52.588;13.396;2023-03-14T03:00:17;98699.38;;;11.11;72.32
57192;BME280;43052;52.588;13.396;2023-03-14T03:02:42;98669.25;;;11.01;72.30
57192;BME280;43052;52.588;13.396;2023-03-14T03:05:08;98669.59;;;10.93;72.14
57192;BME280;43052;52.588;13.396;2023-03-14T03:07:33;98662.84;;;10.87;72.21
57192;BME280;43052;52.588;13.396;2023-03-14T03:09:58;98665.81;;;10.78;72.51
57192;BME280;43052;52.588;13.396;2023-03-14T03:12:23;98652.06;;;10.73;72.59
57192;BME280;43052;52.588;13.396;2023-03-14T03:14:49;98643.56;;;10.68;72.51
57192;BME280;43052;52.588;13.396;2023-03-14T03:17:14;98642.88;;;10.62;72.80
57192;BME280;43052;52.588;13.396;2023-03-14T03:19:39;98638.63;;;10.60;73.03
57192;BME280;43052;52.588;13.396;2023-03-14T03:22:05;98647.50;;;10.56;73.02
57192;BME280;43052;52.588;13.396;2023-03-14T03:24:30;98639.72;;;10.54;73.00
57192;BME280;43052;52.588;13.396;2023-03-14T03:26:55;98636.34;;;10.52;73.16
57192;BME280;43052;52.588;13.396;2023-03-14T03:29:21;98645.88;;;10.53;73.06
57192;BME280;43052;52.588;13.396;2023-03-14T03:31:46;98658.19;;;10.49;72.99
57192;BME280;43052;52.588;13.396;2023-03-14T03:34:12;98654.06;;;10.44;73.54
57192;BME280;43052;52.588;13.396;2023-03-14T03:36:39;98658.53;;;10.40;73.39
57192;BME280;43052;52.588;13.396;2023-03-14T03:39:04;98664.63;;;10.41;73.51
57192;BME280;43052;52.588;13.396;2023-03-14T03:41:30;98660.38;;;10.38;73.53
57192;BME280;43052;52.588;13.396;2023-03-14T03:43:55;98658.72;;;10.35;73.14
57192;BME280;43052;52.588;13.396;2023-03-14T03:46:21;98663.00;;;10.37;73.32
57192;BME280;43052;52.588;13.396;2023-03-14T03:48:46;98671.66;;;10.39;73.18
57192;BME280;43052;52.588;13.396;2023-03-14T03:51:15;98662.16;;;10.36;73.15
57192;BME280;43052;52.588;13.396;2023-03-14T03:53:41;98654.38;;;10.34;73.35
57192;BME280;43052;52.588;13.396;2023-03-14T03:56:08;98653.59;;;10.32;73.17
57192;BME280;43052;52.588;13.396;2023-03-14T03:58:33;98653.66;;;10.31;73.43
57192;BME280;43052;52.588;13.396;2023-03-14T04:00:58;98644.41;;;10.22;73.38
57192;BME280;43052;52.588;13.396;2023-03-14T04:03:24;98648.66;;;10.25;73.39
57192;BME280;43052;52.588;13.396;2023-03-14T04:06:05;98654.78;;;10.24;73.43
57192;BME280;43052;52.588;13.396;2023-03-14T04:08:30;98662.59;;;10.24;73.43
57192;BME280;43052;52.588;13.396;2023-03-14T04:11:00;98672.47;;;10.17;73.35
57192;BME280;43052;52.588;13.396;2023-03-14T04:13:27;98645.47;;;10.16;73.32
57192;BME280;43052;52.588;13.396;2023-03-14T04:15:54;98641.16;;;10.15;73.17
57192;BME280;43052;52.588;13.396;2023-03-14T04:18:19;98665.53;;;10.16;73.51
57192;BME280;43052;52.588;13.396;2023-03-14T04:20:45;98661.28;;;10.13;73.21
57192;BME280;43052;52.588;13.396;2023-03-14T04:23:10;98651.59;;;10.15;73.40
57192;BME280;43052;52.588;13.396;2023-03-14T04:25:36;98637.72;;;10.15;73.48
57192;BME280;43052;52.588;13.396;2023-03-14T04:28:01;98640.25;;;10.16;73.20
57192;BME280;43052;52.588;13.396;2023-03-14T04:30:28;98642.75;;;10.19;73.20
57192;BME280;43052;52.588;13.396;2023-03-14T04:32:53;98645.22;;;10.23;73.18
57192;BME280;43052;52.588;13.396;2023-03-14T04:35:18;98639.09;;;10.24;73.10
57192;BME280;43052;52.588;13.396;2023-03-14T04:37:44;98629.63;;;10.21;72.98
57192;BME280;43052;52.588;13.396;2023-03-14T04:40:11;98623.50;;;10.22;72.84
57192;BME280;43052;52.588;13.396;2023-03-14T04:42:36;98621.69;;;10.24;72.75
57192;BME280;43052;52.588;13.396;2023-03-14T04:45:02;98615.59;;;10.24;72.54
57192;BME280;43052;52.588;13.396;2023-03-14T04:47:28;98614.81;;;10.22;72.79
57192;BME280;43052;52.588;13.396;2023-03-14T04:49:53;98612.25;;;10.20;72.40
57192;BME280;43052;52.588;13.396;2023-03-14T04:52:18;98604.59;;;10.15;72.56
57192;BME280;43052;52.588;13.396;2023-03-14T04:54:44;98586.44;;;10.12;72.66
57192;BME280;43052;52.588;13.396;2023-03-14T04:57:09;98591.59;;;10.14;72.63
57192;BME280;43052;52.588;13.396;2023-03-14T04:59:34;98589.81;;;10.14;72.47
57192;BME280;43052;52.588;13.396;2023-03-14T05:01:59;98587.34;;;10.11;72.40
57192;BME280;43052;52.588;13.396;2023-03-14T05:04:25;98598.59;;;10.13;72.29
57192;BME280;43052;52.588;13.396;2023-03-14T05:06:50;98604.66;;;10.14;72.37
57192;BME280;43052;52.588;13.396;2023-03-14T05:09:15;98593.19;;;10.18;72.18
57192;BME280;43052;52.588;13.396;2023-03-14T05:11:41;98616.47;;;10.24;72.21
57192;BME280;43052;52.588;13.396;2023-03-14T05:14:06;98600.78;;;10.24;71.99
57192;BME280;43052;52.588;13.396;2023-03-14T05:16:31;98593.84;;;10.23;71.81
57192;BME280;43052;52.588;13.396;2023-03-14T05:18:56;98588.53;;;10.26;71.53
57192;BME280;43052;52.588;13.396;2023-03-14T05:21:22;98595.31;;;10.30;71.63
57192;BME280;43052;52.588;13.396;2023-03-14T05:23:47;98583.16;;;10.29;71.64
57192;BME280;43052;52.588;13.396;2023-03-14T05:26:12;98581.34;;;10.31;71.57
57192;BME280;43052;52.588;13.396;2023-03-14T05:28:38;98567.50;;;10.29;71.42
57192;BME280;43052;52.588;13.396;2023-03-14T05:31:06;98576.84;;;10.35;71.34
57192;BME280;43052;52.588;13.396;2023-03-14T05:33:31;98583.75;;;10.38;71.20
57192;BME280;43052;52.588;13.396;2023-03-14T05:35:57;98569.84;;;10.37;71.24
57192;BME280;43052;52.588;13.396;2023-03-14T05:38:22;98571.53;;;10.38;71.11
57192;BME280;43052;52.588;13.396;2023-03-14T05:40:47;98574.09;;;10.40;70.83
57192;BME280;43052;52.588;13.396;2023-03-14T05:43:12;98571.38;;;10.43;70.85
57192;BME280;43052;52.588;13.396;2023-03-14T05:45:38;98568.59;;;10.46;70.57
57192;BME280;43052;52.588;13.396;2023-03-14T05:48:03;98580.66;;;10.50;70.46
57192;BME280;43052;52.588;13.396;2023-03-14T05:50:29;98578.84;;;10.52;70.44
57192;BME280;43052;52.588;13.396;2023-03-14T05:52:54;98573.47;;;10.55;70.01
57192;BME280;43052;52.588;13.396;2023-03-14T05:55:19;98575.16;;;10.56;69.82
57192;BME280;43052;52.588;13.396;2023-03-14T05:57:45;98575.91;;;10.60;69.93
57192;BME280;43052;52.588;13.396;2023-03-14T06:00:10;98581.09;;;10.61;69.48
57192;BME280;43052;52.588;13.396;2023-03-14T06:02:36;98580.94;;;10.64;69.46
57192;BME280;43052;52.588;13.396;2023-03-14T06:05:01;98590.41;;;10.67;69.41
57192;BME280;43052;52.588;13.396;2023-03-14T06:07:26;98579.91;;;10.69;68.81
57192;BME280;43052;52.588;13.396;2023-03-14T06:09:51;98572.00;;;10.70;69.16
57192;BME280;43052;52.588;13.396;2023-03-14T06:12:17;98576.97;;;10.76;68.87
57192;BME280;43052;52.588;13.396;2023-03-14T06:14:42;98571.56;;;10.81;68.41
57192;BME280;43052;52.588;13.396;2023-03-14T06:17:07;98575.75;;;10.85;68.61
57192;BME280;43052;52.588;13.396;2023-03-14T06:19:32;98573.78;;;10.90;68.10
57192;BME280;43052;52.588;13.396;2023-03-14T06:21:58;98565.81;;;10.93;68.10
57192;BME280;43052;52.588;13.396;2023-03-14T06:24:23;98563.84;;;10.98;67.99
57192;BME280;43052;52.588;13.396;2023-03-14T06:26:48;98571.47;;;11.05;67.45
57192;BME280;43052;52.588;13.396;2023-03-14T06:29:13;98573.88;;;11.09;67.02
57192;BME280;43052;52.588;13.396;2023-03-14T06:31:39;98577.06;;;11.16;67.02
57192;BME280;43052;52.588;13.396;2023-03-14T06:34:05;98563.78;;;11.21;67.11
57192;BME280;43052;52.588;13.396;2023-03-14T06:36:30;98569.63;;;11.27;66.71
57192;BME280;43052;52.588;13.396;2023-03-14T06:38:55;98565.88;;;11.33;66.10
57192;BME280;43052;52.588;13.396;2023-03-14T06:41:21;98579.28;;;11.46;65.82
57192;BME280;43052;52.588;13.396;2023-03-14T06:43:49;98584.75;;;11.60;65.48
57192;BME280;43052;52.588;13.396;2023-03-14T06:46:14;98583.28;;;11.74;65.26
57192;BME280;43052;52.588;13.396;2023-03-14T06:48:40;98594.69;;;11.92;64.22
57192;BME280;43052;52.588;13.396;2023-03-14T06:51:05;98590.75;;;12.02;64.18
57192;BME280;43052;52.588;13.396;2023-03-14T06:53:31;98595.50;;;12.13;63.80
57192;BME280;43052;52.588;13.396;2023-03-14T06:55:56;98596.72;;;12.25;63.04
57192;BME280;43052;52.588;13.396;2023-03-14T06:58:21;98597.00;;;12.38;62.96
57192;BME280;43052;52.588;13.396;2023-03-14T07:00:47;98598.00;;;12.72;62.16
57192;BME280;43052;52.588;13.396;2023-03-14T07:03:13;98600.94;;;13.19;61.25
57192;BME280;43052;52.588;13.396;2023-03-14T07:05:39;98602.22;;;13.62;59.93
57192;BME280;43052;52.588;13.396;2023-03-14T07:08:05;98599.88;;;14.23;58.86
57192;BME280;43052;52.588;13.396;2023-03-14T07:10:31;98609.00;;;14.48;57.52
57192;BME280;43052;52.588;13.396;2023-03-14T07:12:56;98614.88;;;14.37;57.03
57192;BME280;43052;52.588;13.396;2023-03-14T07:15:21;98607.56;;;14.10;56.95
57192;BME280;43052;52.588;13.396;2023-03-14T07:17:47;98614.94;;;13.88;57.08
57192;BME280;43052;52.588;13.396;2023-03-14T07:20:13;98611.25;;;13.74;57.80
57192;BME280;43052;52.588;13.396;2023-03-14T07:22:38;98614.34;;;13.65;57.84
57192;BME280;43052;52.588;13.396;2023-03-14T07:25:03;98618.81;;;13.63;57.88
57192;BME280;43052;52.588;13.396;2023-03-14T07:27:29;98611.81;;;13.63;57.63
57192;BME280;43052;52.588;13.396;2023-03-14T07:29:54;98614.38;;;14.15;56.84
57192;BME280;43052;52.588;13.396;2023-03-14T07:32:19;98618.41;;;14.84;55.16
57192;BME280;43052;52.588;13.396;2023-03-14T07:34:44;98615.91;;;16.02;53.15
57192;BME280;43052;52.588;13.396;2023-03-14T07:37:10;98621.53;;;17.47;51.10
57192;BME280;43052;52.588;13.396;2023-03-14T07:39:35;98624.09;;;18.00;49.12
57192;BME280;43052;52.588;13.396;2023-03-14T07:42:00;98627.69;;;17.73;48.15
57192;BME280;43052;52.588;13.396;2023-03-14T07:44:26;98627.91;;;17.96;47.49
57192;BME280;43052;52.588;13.396;2023-03-14T07:46:51;98625.47;;;18.43;47.03
57192;BME280;43052;52.588;13.396;2023-03-14T07:49:16;98610.84;;;18.26;46.64
57192;BME280;43052;52.588;13.396;2023-03-14T07:51:42;98619.72;;;18.25;46.88
57192;BME280;43052;52.588;13.396;2023-03-14T07:54:09;98637.88;;;18.42;46.47
57192;BME280;43052;52.588;13.396;2023-03-14T07:56:34;98632.53;;;18.92;45.56
57192;BME280;43052;52.588;13.396;2023-03-14T07:58:59;98632.25;;;19.55;44.35
57192;BME280;43052;52.588;13.396;2023-03-14T08:01:24;98620.34;;;20.96;42.70
57192;BME280;43052;52.588;13.396;2023-03-14T08:03:50;98611.06;;;21.54;39.37
57192;BME280;43052;52.588;13.396;2023-03-14T08:06:15;98607.16;;;22.10;38.98
57192;BME280;43052;52.588;13.396;2023-03-14T08:08:40;98610.41;;;23.53;37.05
57192;BME280;43052;52.588;13.396;2023-03-14T08:11:06;98600.44;;;24.94;35.68
57192;BME280;43052;52.588;13.396;2023-03-14T08:13:34;98596.75;;;25.31;34.33
57192;BME280;43052;52.588;13.396;2023-03-14T08:15:59;98599.84;;;24.82;34.40
57192;BME280;43052;52.588;13.396;2023-03-14T08:18:24;98597.66;;;24.22;34.73
57192;BME280;43052;52.588;13.396;2023-03-14T08:20:49;98607.75;;;23.04;36.01
57192;BME280;43052;52.588;13.396;2023-03-14T08:23:15;98605.50;;;21.78;37.62
57192;BME280;43052;52.588;13.396;2023-03-14T08:25:40;98588.06;;;20.79;39.60
57192;BME280;43052;52.588;13.396;2023-03-14T08:28:05;98606.38;;;20.16;40.53
57192;BME280;43052;52.588;13.396;2023-03-14T08:30:30;98615.72;;;19.40;41.82
57192;BME280;43052;52.588;13.396;2023-03-14T08:32:57;98606.47;;;18.62;43.11
57192;BME280;43052;52.588;13.396;2023-03-14T08:35:24;98610.75;;;17.89;44.21
57192;BME280;43052;52.588;13.396;2023-03-14T08:37:49;98603.31;;;17.16;45.31
57192;BME280;43052;52.588;13.396;2023-03-14T08:40:15;98622.38;;;16.67;46.41
57192;BME280;43052;52.588;13.396;2023-03-14T08:42:42;98619.63;;;16.26;47.18
57192;BME280;43052;52.588;13.396;2023-03-14T08:45:08;98626.09;;;15.93;47.72
57192;BME280;43052;52.588;13.396;2023-03-14T08:47:34;98628.09;;;15.59;48.51
57192;BME280;43052;52.588;13.396;2023-03-14T08:49:59;98645.66;;;15.30;49.01
57192;BME280;43052;52.588;13.396;2023-03-14T08:52:24;98641.31;;;14.98;50.20
57192;BME280;43052;52.588;13.396;2023-03-14T08:54:49;98641.78;;;14.75;50.98
57192;BME280;43052;52.588;13.396;2023-03-14T08:57:15;98643.06;;;14.67;51.53
57192;BME280;43052;52.588;13.396;2023-03-14T08:59:42;98647.19;;;14.55;51.81
57192;BME280;43052;52.588;13.396;2023-03-14T09:02:11;98645.50;;;14.38;51.74
57192;BME280;43052;52.588;13.396;2023-03-14T09:04:36;98647.50;;;14.33;52.32
57192;BME280;43052;52.588;13.396;2023-03-14T09:07:01;98650.75;;;14.38;52.45
57192;BME280;43052;52.588;13.396;2023-03-14T09:09:26;98645.16;;;14.45;52.56
57192;BME280;43052;52.588;13.396;2023-03-14T09:11:52;98648.13;;;14.54;52.49
57192;BME280;43052;52.588;13.396;2023-03-14T09:14:18;98637.09;;;14.80;52.26
57192;BME280;43052;52.588;13.396;2023-03-14T09:16:43;98630.88;;;15.27;51.37
57192;BME280;43052;52.588;13.396;2023-03-14T09:19:08;98619.19;;;16.20;49.82
57192;BME280;43052;52.588;13.396;2023-03-14T09:21:33;98607.38;;;17.74;46.93
57192;BME280;43052;52.588;13.396;2023-03-14T09:23:59;98603.16;;;21.21;41.62
57192;BME280;43052;52.588;13.396;2023-03-14T09:26:25;98603.84;;;25.41;35.16
57192;BME280;43052;52.588;13.396;2023-03-14T09:28:50;98597.56;;;28.57;30.83
57192;BME280;43052;52.588;13.396;2023-03-14T09:31:16;98586.69;;;30.70;27.43
57192;BME280;43052;52.588;13.396;2023-03-14T09:33:42;98589.03;;;32.15;24.86
57192;BME280;43052;52.588;13.396;2023-03-14T09:36:08;98576.31;;;32.64;22.76
57192;BME280;43052;52.588;13.396;2023-03-14T09:38:34;98589.31;;;31.85;23.05
57192;BME280;43052;52.588;13.396;2023-03-14T09:41:01;98582.53;;;29.86;24.32
57192;BME280;43052;52.588;13.396;2023-03-14T09:43:33;98567.13;;;29.35;25.24
57192;BME280;43052;52.588;13.396;2023-03-14T09:46:01;98585.28;;;27.83;25.99
57192;BME280;43052;52.588;13.396;2023-03-14T09:48:30;98584.22;;;26.19;28.10
57192;BME280;43052;52.588;13.396;2023-03-14T09:50:58;98579.75;;;24.32;30.30
57192;BME280;43052;52.588;13.396;2023-03-14T09:53:27;98595.81;;;22.49;32.55
57192;BME280;43052;52.588;13.396;2023-03-14T09:55:54;98582.47;;;21.04;34.46
57192;BME280;43052;52.588;13.396;2023-03-14T09:58:23;98606.59;;;19.67;36.75
57192;BME280;43052;52.588;13.396;2023-03-14T10:00:56;98611.88;;;18.60;38.62
57192;BME280;43052;52.588;13.396;2023-03-14T10:03:32;98610.75;;;17.89;40.12
57192;BME280;43052;52.588;13.396;2023-03-14T10:05:59;98606.75;;;17.44;41.12
57192;BME280;43052;52.588;13.396;2023-03-14T10:08:25;98618.66;;;17.11;41.93
57192;BME280;43052;52.588;13.396;2023-03-14T10:10:51;98615.88;;;16.72;42.66
57192;BME280;43052;52.588;13.396;2023-03-14T10:13:26;98620.09;;;16.48;43.42
57192;BME280;43052;52.588;13.396;2023-03-14T10:16:00;98610.72;;;16.29;43.77
57192;BME280;43052;52.588;13.396;2023-03-14T10:18:28;98611.47;;;16.17;44.13
57192;BME280;43052;52.588;13.396;2023-03-14T10:21:27;98623.28;;;15.96;44.62
57192;BME280;43052;52.588;13.396;2023-03-14T10:23:53;98610.56;;;15.89;44.98
57192;BME280;43052;52.588;13.396;2023-03-14T10:26:27;98613.28;;;15.73;45.27
57192;BME280;43052;52.588;13.396;2023-03-14T10:29:02;98615.97;;;15.57;45.65
57192;BME280;43052;52.588;13.396;2023-03-14T10:31:27;98614.72;;;15.48;45.47
57192;BME280;43052;52.588;13.396;2023-03-14T10:34:02;98615.69;;;15.47;45.74
57192;BME280;43052;52.588;13.396;2023-03-14T10:36:30;98618.59;;;15.42;45.95
57192;BME280;43052;52.588;13.396;2023-03-14T10:41:54;98622.75;;;15.16;46.69
57192;BME280;43052;52.588;13.396;2023-03-14T10:44:22;98628.56;;;15.07;46.87
57192;BME280;43052;52.588;13.396;2023-03-14T10:47:02;98621.38;;;14.94;47.36
57192;BME280;43052;52.588;13.396;2023-03-14T10:49:34;98624.72;;;14.82;47.51
57192;BME280;43052;52.588;13.396;2023-03-14T10:54:38;98620.81;;;14.73;48.11
57192;BME280;43052;52.588;13.396;2023-03-14T10:57:04;98619.22;;;14.70;48.02
57192;BME280;43052;52.588;13.396;2023-03-14T10:59:36;98628.78;;;14.71;48.19
57192;BME280;43052;52.588;13.396;2023-03-14T11:02:20;98633.97;;;14.73;48.13
57192;BME280;43052;52.588;13.396;2023-03-14T11:04:59;98622.69;;;14.71;48.06
57192;BME280;43052;52.588;13.396;2023-03-14T11:07:42;98625.41;;;14.69;48.01
57192;BME280;43052;52.588;13.396;2023-03-14T11:10:19;98618.28;;;14.71;48.01
57192;BME280;43052;52.588;13.396;2023-03-14T11:15:53;98622.16;;;14.64;48.36
57192;BME280;43052;52.588;13.396;2023-03-14T11:21:32;98616.13;;;14.46;48.90
57192;BME280;43052;52.588;13.396;2023-03-14T11:26:43;98618.53;;;14.35;49.29
57192;BME280;43052;52.588;13.396;2023-03-14T11:29:20;98619.88;;;14.42;49.31
57192;BME280;43052;52.588;13.396;2023-03-14T11:31:46;98613.50;;;14.46;49.19
57192;BME280;43052;52.588;13.396;2023-03-14T11:34:17;98607.50;;;14.44;49.56
57192;BME280;43052;52.588;13.396;2023-03-14T11:36:53;98614.78;;;14.55;49.05
57192;BME280;43052;52.588;13.396;2023-03-14T11:39:21;98605.28;;;14.68;49.05
57192;BME280;43052;52.588;13.396;2023-03-14T11:41:51;98601.19;;;14.79;48.85
57192;BME280;43052;52.588;13.396;2023-03-14T11:44:36;98606.97;;;14.85;48.89
57192;BME280;43052;52.588;13.396;2023-03-14T11:47:10;98618.31;;;14.86;48.83
57192;BME280;43052;52.588;13.396;2023-03-14T11:50:02;98595.59;;;14.85;48.43
57192;BME280;43052;52.588;13.396;2023-03-14T11:52:37;98602.81;;;14.81;48.78
57192;BME280;43052;52.588;13.396;2023-03-14T11:57:47;98610.25;;;14.89;49.96
57192;BME280;43052;52.588;13.396;2023-03-14T12:00:18;98604.63;;;14.95;50.25
57192;BME280;43052;52.588;13.396;2023-03-14T12:05:40;98594.69;;;15.31;49.63
57192;BME280;43052;52.588;13.396;2023-03-14T12:10:49;98592.09;;;15.15;50.01
57192;BME280;43052;52.588;13.396;2023-03-14T12:13:16;98594.25;;;15.08;50.11
57192;BME280;43052;52.588;13.396;2023-03-14T12:16:00;98593.25;;;15.11;50.57
57192;BME280;43052;52.588;13.396;2023-03-14T12:21:00;98597.63;;;15.10;51.15
57192;BME280;43052;52.588;13.396;2023-03-14T12:23:28;98598.84;;;15.04;51.15
57192;BME280;43052;52.588;13.396;2023-03-14T12:26:13;98589.09;;;15.07;51.25
57192;BME280;43052;52.588;13.396;2023-03-14T12:28:44;98591.34;;;15.13;51.25
57192;BME280;43052;52.588;13.396;2023-03-14T12:42:02;98574.88;;;16.67;48.72
57192;BME280;43052;52.588;13.396;2023-03-14T12:46:57;98577.97;;;17.14;47.35
57192;BME280;43052;52.588;13.396;2023-03-14T12:49:29;98568.97;;;17.03;47.05
57192;BME280;43052;52.588;13.396;2023-03-14T12:52:01;98570.06;;;16.73;47.45
57192;BME280;43052;52.588;13.396;2023-03-14T12:57:21;98578.06;;;16.17;48.53
57192;BME280;43052;52.588;13.396;2023-03-14T12:59:52;98579.94;;;16.15;48.95
57192;BME280;43052;52.588;13.396;2023-03-14T13:02:23;98579.94;;;16.15;49.40
57192;BME280;43052;52.588;13.396;2023-03-14T13:04:59;98574.84;;;16.12;49.89
57192;BME280;43052;52.588;13.396;2023-03-14T13:07:35;98571.13;;;15.87;50.56
57192;BME280;43052;52.588;13.396;2023-03-14T13:12:48;98569.16;;;15.91;51.10
57192;BME280;43052;52.588;13.396;2023-03-14T13:15:21;98574.78;;;15.99;50.89
57192;BME280;43052;52.588;13.396;2023-03-14T13:17:49;98572.41;;;16.09;50.63
57192;BME280;43052;52.588;13.396;2023-03-14T13:20:24;98565.25;;;16.11;50.52
57192;BME280;43052;52.588;13.396;2023-03-14T13:22:51;98569.72;;;16.38;50.21
57192;BME280;43052;52.588;13.396;2023-03-14T13:25:16;98552.97;;;16.52;48.73
57192;BME280;43052;52.588;13.396;2023-03-14T13:27:43;98552.94;;;16.39;48.88
57192;BME280;43052;52.588;13.396;2023-03-14T13:30:36;98549.53;;;16.09;49.55
57192;BME280;43052;52.588;13.396;2023-03-14T13:33:04;98543.44;;;15.80;50.08
57192;BME280;43052;52.588;13.396;2023-03-14T13:35:42;98553.03;;;15.52;50.92
57192;BME280;43052;52.588;13.396;2023-03-14T13:38:23;98538.69;;;15.13;51.62